createdAt,value
2019-03-12T00:00:38.614Z,76.30
2019-03-12T00:02:30.984Z,76.10
2019-03-12T00:04:23.033Z,75.60
2019-03-12T00:06:15.067Z,75.80
2019-03-12T00:08:07.142Z,76.90
2019-03-12T00:09:59.687Z,76.70
2019-03-12T00:11:52.205Z,76.30
2019-03-12T00:13:44.272Z,77.20
2019-03-12T00:15:36.468Z,76.40
2019-03-12T00:17:28.379Z,76.10
2019-03-12T00:19:20.583Z,77.10
2019-03-12T00:21:12.820Z,76.70
2019-03-12T00:23:04.791Z,76.20
2019-03-12T00:24:56.938Z,76.10
2019-03-12T00:26:48.806Z,77.40
2019-03-12T00:28:40.671Z,78.00
2019-03-12T00:30:32.945Z,76.90
2019-03-12T00:32:25.185Z,77.60
2019-03-12T00:34:17.303Z,78.30
2019-03-12T00:36:09.445Z,77.10
2019-03-12T00:38:01.337Z,77.00
2019-03-12T00:39:53.539Z,77.00
2019-03-12T00:41:45.827Z,76.50
2019-03-12T00:43:38.205Z,77.10
2019-03-12T00:45:30.489Z,76.90
2019-03-12T00:47:22.421Z,77.60
2019-03-12T00:49:14.475Z,77.40
2019-03-12T00:51:06.728Z,76.80
2019-03-12T00:52:59.039Z,75.80
2019-03-12T00:54:50.973Z,75.80
2019-03-12T00:56:43.378Z,75.70
2019-03-12T00:58:35.276Z,76.60
2019-03-12T01:00:27.328Z,75.80
2019-03-12T01:02:19.632Z,75.20
2019-03-12T01:04:12.070Z,75.70
2019-03-12T01:06:05.320Z,75.20
2019-03-12T01:07:57.602Z,75.70
2019-03-12T01:09:49.741Z,76.30
2019-03-12T01:11:42.389Z,77.00
2019-03-12T01:13:34.920Z,77.30
2019-03-12T01:15:27.044Z,77.40
2019-03-12T01:17:19.221Z,77.70
2019-03-12T01:19:11.330Z,79.20
2019-03-12T01:21:03.852Z,80.20
2019-03-12T01:22:56.263Z,80.40
2019-03-12T01:24:49.605Z,79.70
2019-03-12T01:26:41.912Z,78.80
2019-03-12T01:28:34.547Z,79.80
2019-03-12T01:30:27.132Z,79.60
2019-03-12T01:32:19.490Z,79.40
2019-03-12T01:34:11.459Z,78.00
2019-03-12T01:36:03.390Z,78.50
2019-03-12T01:37:55.806Z,78.90
2019-03-12T01:39:48.272Z,79.00
2019-03-12T01:41:40.615Z,79.10
2019-03-12T01:43:32.909Z,78.00
2019-03-12T01:45:25.347Z,78.40
2019-03-12T01:47:17.272Z,78.70
2019-03-12T01:49:09.396Z,78.50
2019-03-12T01:51:01.668Z,79.80
2019-03-12T01:52:54.133Z,78.90
2019-03-12T01:54:46.080Z,79.50
2019-03-12T01:56:38.317Z,78.40
2019-03-12T01:58:30.201Z,78.60
2019-03-12T02:00:22.523Z,78.40
2019-03-12T02:02:14.799Z,78.60
2019-03-12T02:04:06.725Z,78.30
2019-03-12T02:05:58.888Z,77.80
2019-03-12T02:07:52.982Z,77.40
2019-03-12T02:09:45.200Z,77.40
2019-03-12T02:11:37.429Z,78.80
2019-03-12T02:13:30.049Z,77.30
2019-03-12T02:15:22.259Z,77.80
2019-03-12T02:17:14.369Z,77.00
2019-03-12T02:19:07.894Z,78.20
2019-03-12T02:21:00.413Z,76.80
2019-03-12T02:22:52.684Z,76.20
2019-03-12T02:24:52.780Z,75.40
2019-03-12T02:26:40.220Z,76.10
2019-03-12T02:28:32.313Z,76.70
2019-03-12T02:30:24.882Z,76.50
2019-03-12T02:32:16.789Z,76.10
2019-03-12T02:34:09.401Z,76.70
2019-03-12T02:36:01.528Z,75.80
2019-03-12T02:37:53.676Z,75.30
2019-03-12T02:39:46.172Z,76.10
2019-03-12T02:41:38.440Z,76.10
2019-03-12T02:43:30.339Z,76.40
2019-03-12T02:45:22.232Z,76.30
2019-03-12T02:47:14.137Z,76.80
2019-03-12T02:49:09.551Z,75.90
2019-03-12T02:51:00.323Z,76.70
2019-03-12T02:52:52.438Z,76.00
2019-03-12T02:54:44.210Z,76.00
2019-03-12T02:56:36.325Z,76.80
2019-03-12T02:58:28.686Z,76.90
2019-03-12T03:00:23.156Z,76.00
2019-03-12T03:02:15.329Z,75.90
2019-03-12T03:04:07.734Z,76.50
2019-03-12T03:06:02.014Z,76.80
2019-03-12T03:07:58.341Z,76.80
2019-03-12T03:09:50.221Z,76.90
2019-03-12T03:11:42.781Z,76.00
2019-03-12T03:13:36.814Z,76.20
2019-03-12T03:15:35.020Z,77.10
2019-03-12T03:17:27.376Z,76.80
2019-03-12T03:19:20.053Z,76.90
2019-03-12T03:21:12.148Z,76.90
2019-03-12T03:23:04.525Z,76.00
2019-03-12T03:24:56.924Z,76.80
2019-03-12T03:26:49.408Z,77.00
2019-03-12T03:28:42.073Z,75.90
2019-03-12T03:30:34.570Z,77.00
2019-03-12T03:32:26.921Z,76.90
2019-03-12T03:34:19.002Z,77.20
2019-03-12T03:36:11.120Z,76.60
2019-03-12T03:38:03.370Z,76.30
2019-03-12T03:39:55.400Z,76.00
2019-03-12T03:41:47.602Z,76.00
2019-03-12T03:43:39.757Z,77.30
2019-03-12T03:45:32.263Z,76.80
2019-03-12T03:47:24.542Z,75.90
2019-03-12T03:49:16.829Z,76.00
2019-03-12T03:51:08.813Z,75.70
2019-03-12T03:53:01.008Z,76.10
2019-03-12T03:54:53.165Z,75.90
2019-03-12T03:56:45.071Z,76.70
2019-03-12T03:58:37.217Z,77.60
2019-03-12T04:00:29.497Z,77.00
2019-03-12T04:02:21.457Z,76.70
2019-03-12T04:04:14.037Z,76.80
2019-03-12T04:06:06.071Z,76.90
2019-03-12T04:07:58.126Z,77.30
2019-03-12T04:09:53.194Z,77.70
2019-03-12T04:11:45.618Z,76.50
2019-03-12T04:13:38.178Z,76.80
2019-03-12T04:15:30.360Z,76.90
2019-03-12T04:17:22.612Z,76.70
2019-03-12T04:19:14.821Z,76.70
2019-03-12T04:21:07.135Z,76.50
2019-03-12T04:22:58.980Z,76.80
2019-03-12T04:24:51.088Z,76.70
2019-03-12T04:26:43.287Z,76.90
2019-03-12T04:28:35.286Z,76.50
2019-03-12T04:30:27.395Z,76.90
2019-03-12T04:32:19.912Z,76.30
2019-03-12T04:34:12.579Z,76.60
2019-03-12T04:36:04.404Z,76.60
2019-03-12T04:37:56.944Z,76.80
2019-03-12T04:39:49.200Z,76.90
2019-03-12T04:41:41.460Z,77.30
2019-03-12T04:43:33.336Z,76.90
2019-03-12T04:45:25.557Z,77.10
2019-03-12T04:47:17.891Z,77.30
2019-03-12T04:49:09.999Z,76.90
2019-03-12T04:51:02.431Z,76.40
2019-03-12T04:52:54.352Z,76.30
2019-03-12T04:54:46.523Z,76.40
2019-03-12T04:56:38.865Z,76.20
2019-03-12T04:58:31.178Z,75.80
2019-03-12T05:00:24.568Z,76.00
2019-03-12T05:02:18.816Z,75.80
2019-03-12T05:04:10.915Z,77.10
2019-03-12T05:06:03.023Z,75.70
2019-03-12T05:07:55.431Z,75.30
2019-03-12T05:09:47.813Z,76.20
2019-03-12T05:11:40.259Z,76.40
2019-03-12T05:13:32.651Z,77.00
2019-03-12T05:15:24.625Z,76.90
2019-03-12T05:17:17.326Z,75.60
2019-03-12T05:19:09.535Z,75.30
2019-03-12T05:21:01.478Z,75.10
2019-03-12T05:22:53.371Z,75.60
2019-03-12T05:24:45.441Z,75.80
2019-03-12T05:26:37.960Z,76.00
2019-03-12T05:28:30.256Z,75.10
2019-03-12T05:30:22.404Z,74.90
2019-03-12T05:32:14.559Z,74.80
2019-03-12T05:34:06.911Z,75.30
2019-03-12T05:35:59.275Z,74.60
2019-03-12T05:37:51.320Z,75.30
2019-03-12T05:39:43.550Z,75.10
2019-03-12T05:41:35.798Z,74.90
2019-03-12T05:43:27.753Z,74.80
2019-03-12T05:45:19.935Z,74.60
2019-03-12T05:47:12.323Z,75.10
2019-03-12T05:49:04.551Z,74.50
2019-03-12T05:50:57.012Z,74.60
2019-03-12T05:52:49.719Z,75.10
2019-03-12T05:54:43.140Z,74.50
2019-03-12T05:56:35.396Z,74.60
2019-03-12T05:58:27.632Z,75.80
2019-03-12T06:00:22.068Z,74.80
2019-03-12T06:02:14.608Z,73.90
2019-03-12T06:04:06.888Z,74.80
2019-03-12T06:05:59.212Z,74.20
2019-03-12T06:07:51.488Z,74.70
2019-03-12T06:09:43.445Z,74.80
2019-03-12T06:11:35.567Z,74.90
2019-03-12T06:13:28.011Z,74.20
2019-03-12T06:15:20.350Z,74.70
2019-03-12T06:17:12.659Z,74.80
2019-03-12T06:19:04.840Z,74.50
2019-03-12T06:20:57.188Z,74.40
2019-03-12T06:22:49.110Z,75.20
2019-03-12T06:24:41.423Z,74.50
2019-03-12T06:26:33.719Z,74.20
2019-03-12T06:28:26.032Z,74.90
2019-03-12T06:30:19.435Z,75.00
2019-03-12T06:32:13.436Z,75.10
2019-03-12T06:34:07.214Z,74.80
2019-03-12T06:36:09.882Z,74.60
2019-03-12T06:38:03.743Z,74.80
2019-03-12T06:40:02.931Z,74.10
2019-03-12T06:42:08.813Z,73.30
2019-03-12T06:44:11.464Z,74.10
2019-03-12T06:46:08.293Z,73.90
2019-03-12T06:48:08.216Z,74.40
2019-03-12T06:50:07.811Z,74.10
2019-03-12T06:52:25.424Z,74.60
2019-03-12T06:54:23.816Z,73.70
2019-03-12T06:56:29.235Z,73.70
2019-03-12T06:58:26.298Z,73.40
2019-03-12T07:00:21.161Z,74.60
2019-03-12T07:02:27.170Z,72.60
2019-03-12T07:04:24.161Z,72.60
2019-03-12T07:06:20.553Z,73.20
2019-03-12T07:08:17.950Z,73.90
2019-03-12T07:10:21.735Z,73.00
2019-03-12T07:12:15.711Z,72.20
2019-03-12T07:14:09.730Z,72.50
2019-03-12T07:16:09.590Z,72.50
2019-03-12T07:18:05.829Z,70.90
2019-03-12T07:20:02.372Z,70.60
2019-03-12T07:21:56.127Z,70.40
2019-03-12T07:23:59.103Z,70.50
2019-03-12T07:26:11.161Z,71.30
2019-03-12T07:28:13.927Z,72.60
2019-03-12T07:30:09.441Z,72.80
2019-03-12T07:32:26.458Z,71.20
2019-03-12T07:34:35.938Z,72.50
2019-03-12T07:36:33.789Z,72.20
2019-03-12T07:38:33.719Z,77.30
2019-03-12T07:40:43.867Z,71.20
2019-03-12T07:42:52.724Z,68.60
2019-03-12T07:44:52.266Z,68.80
2019-03-12T07:46:46.005Z,68.30
2019-03-12T07:48:45.695Z,68.50
2019-03-12T07:50:42.117Z,67.90
2019-03-12T07:52:41.780Z,67.00
2019-03-12T07:54:35.979Z,66.70
2019-03-12T07:56:46.156Z,66.70
2019-03-12T07:58:45.559Z,65.60
2019-03-12T08:00:44.899Z,66.10
2019-03-12T08:02:42.780Z,65.70
2019-03-12T08:04:39.587Z,65.50
2019-03-12T08:06:36.721Z,65.30
2019-03-12T08:08:33.259Z,65.30
2019-03-12T08:10:42.301Z,65.80
2019-03-12T08:12:44.766Z,66.30
2019-03-12T08:14:44.464Z,64.90
2019-03-12T08:16:54.294Z,64.50
2019-03-12T08:18:49.294Z,63.60
2019-03-12T08:20:43.368Z,61.80
2019-03-12T08:22:42.611Z,59.00
2019-03-12T08:24:39.268Z,59.20
2019-03-12T08:26:48.231Z,59.30
2019-03-12T08:28:48.143Z,56.90
2019-03-12T08:30:41.926Z,58.30
2019-03-12T08:32:35.731Z,58.10
2019-03-12T08:34:29.430Z,57.00
2019-03-12T08:36:25.649Z,57.60
2019-03-12T08:38:35.655Z,55.10
2019-03-12T08:40:29.274Z,56.40
2019-03-12T08:42:28.649Z,54.60
2019-03-12T08:44:37.493Z,54.70
2019-03-12T08:46:38.206Z,56.70
2019-03-12T08:48:46.817Z,55.00
2019-03-12T08:50:58.551Z,55.00
2019-03-12T08:52:52.387Z,53.40
2019-03-12T08:55:04.509Z,53.90
2019-03-12T08:56:58.483Z,53.50
2019-03-12T08:58:54.944Z,52.70
2019-03-12T09:00:48.796Z,54.10
2019-03-12T09:02:52.375Z,53.40
2019-03-12T09:04:48.948Z,54.60
2019-03-12T09:06:54.712Z,54.60
2019-03-12T09:08:48.864Z,54.00
2019-03-12T09:10:42.603Z,53.20
2019-03-12T09:12:41.748Z,54.00
2019-03-12T09:14:35.734Z,52.40
2019-03-12T09:16:41.512Z,53.00
2019-03-12T09:18:35.041Z,53.70
2019-03-12T09:20:37.920Z,52.30
2019-03-12T09:22:43.623Z,51.90
2019-03-12T09:24:53.831Z,52.90
2019-03-12T09:26:47.573Z,52.10
2019-03-12T09:28:46.803Z,52.20
2019-03-12T09:30:41.822Z,52.20
2019-03-12T09:32:38.543Z,51.30
2019-03-12T09:34:50.511Z,51.80
2019-03-12T09:36:44.573Z,50.90
2019-03-12T09:38:48.229Z,50.10
2019-03-12T09:40:42.161Z,49.80
2019-03-12T09:42:54.129Z,47.50
2019-03-12T09:44:54.724Z,48.00
2019-03-12T09:47:05.098Z,46.00
2019-03-12T09:48:58.976Z,46.30
2019-03-12T09:51:04.857Z,46.30
2019-03-12T09:52:58.692Z,46.80
2019-03-12T09:54:58.413Z,48.10
2019-03-12T09:57:07.133Z,48.80
2019-03-12T09:59:09.416Z,46.40
2019-03-12T10:01:03.070Z,46.80
2019-03-12T10:03:13.123Z,46.70
2019-03-12T10:05:23.086Z,47.10
2019-03-12T10:07:22.769Z,47.00
2019-03-12T10:09:19.793Z,48.00
2019-03-12T10:11:19.204Z,46.70
2019-03-12T10:13:24.936Z,47.20
2019-03-12T10:15:31.092Z,44.30
2019-03-12T10:17:30.432Z,45.10
2019-03-12T10:19:27.010Z,43.70
2019-03-12T10:21:23.351Z,41.70
2019-03-12T10:23:35.322Z,41.50
2019-03-12T10:25:29.105Z,44.70
2019-03-12T10:27:28.902Z,43.60
2019-03-12T10:29:26.684Z,43.20
2019-03-12T10:31:23.381Z,43.80
2019-03-12T10:33:19.714Z,44.50
2019-03-12T10:35:22.663Z,45.50
2019-03-12T10:37:16.758Z,43.20
2019-03-12T10:39:34.829Z,42.30
2019-03-12T10:41:28.672Z,41.70
2019-03-12T10:43:22.440Z,41.30
2019-03-12T10:45:16.288Z,41.50
2019-03-12T10:47:10.265Z,43.30
2019-03-12T10:49:02.366Z,40.50
2019-03-12T10:50:54.919Z,41.70
2019-03-12T10:52:47.292Z,40.20
2019-03-12T10:54:39.648Z,42.20
2019-03-12T10:56:31.762Z,40.40
2019-03-12T10:58:24.184Z,39.80
2019-03-12T11:00:19.702Z,39.70
2019-03-12T11:02:11.839Z,41.00
2019-03-12T11:04:05.481Z,40.70
2019-03-12T11:05:57.877Z,40.20
2019-03-12T11:07:50.291Z,42.30
2019-03-12T11:09:42.483Z,41.30
2019-03-12T11:11:34.832Z,41.40
2019-03-12T11:13:26.711Z,41.20
2019-03-12T11:15:19.057Z,41.90
2019-03-12T11:17:11.299Z,41.90
2019-03-12T11:19:04.740Z,41.70
2019-03-12T11:20:58.807Z,42.40
2019-03-12T11:22:51.153Z,42.50
2019-03-12T11:24:43.452Z,42.20
2019-03-12T11:26:35.598Z,42.60
2019-03-12T11:28:27.656Z,40.60
2019-03-12T11:30:20.417Z,40.00
2019-03-12T11:32:12.280Z,42.40
2019-03-12T11:34:04.617Z,41.60
2019-03-12T11:35:57.943Z,42.10
2019-03-12T11:37:50.151Z,41.40
2019-03-12T11:39:42.111Z,42.80
2019-03-12T11:41:34.671Z,40.90
2019-03-12T11:43:27.427Z,42.30
2019-03-12T11:45:22.208Z,41.30
2019-03-12T11:47:13.736Z,41.20
2019-03-12T11:49:07.097Z,41.50
2019-03-12T11:50:59.430Z,40.70
2019-03-12T11:52:56.961Z,41.00
2019-03-12T11:54:46.838Z,41.40
2019-03-12T11:56:39.101Z,40.80
2019-03-12T11:58:31.799Z,39.40
2019-03-12T12:00:35.185Z,38.00
2019-03-12T12:02:27.417Z,40.10
2019-03-12T12:04:19.741Z,38.30
2019-03-12T12:06:12.147Z,40.50
2019-03-12T12:08:05.416Z,38.40
2019-03-12T12:09:57.816Z,38.50
2019-03-12T12:11:50.440Z,38.90
2019-03-12T12:13:43.003Z,38.40
2019-03-12T12:15:35.547Z,38.40
2019-03-12T12:17:27.677Z,38.90
2019-03-12T12:19:19.892Z,38.50
2019-03-12T12:21:12.223Z,37.90
2019-03-12T12:23:04.455Z,39.10
2019-03-12T12:24:56.961Z,38.40
2019-03-12T12:26:49.198Z,37.80
2019-03-12T12:28:41.724Z,36.40
2019-03-12T12:30:34.920Z,36.30
2019-03-12T12:32:27.452Z,35.00
2019-03-12T12:34:19.624Z,33.10
2019-03-12T12:36:11.796Z,35.60
2019-03-12T12:38:03.671Z,33.30
2019-03-12T12:39:56.405Z,33.20
2019-03-12T12:41:48.416Z,33.10
2019-03-12T12:43:40.724Z,32.80
2019-03-12T12:45:40.395Z,32.70
2019-03-12T12:47:33.018Z,32.00
2019-03-12T12:49:25.427Z,31.60
2019-03-12T12:51:17.778Z,30.30
2019-03-12T12:53:10.205Z,30.80
2019-03-12T12:55:02.340Z,30.60
2019-03-12T12:56:54.925Z,29.40
2019-03-12T12:58:46.931Z,29.30
2019-03-12T13:00:39.283Z,29.40
2019-03-12T13:02:31.673Z,29.70
2019-03-12T13:04:25.590Z,28.40
2019-03-12T13:06:18.090Z,28.10
2019-03-12T13:08:11.520Z,27.70
2019-03-12T13:10:05.174Z,28.10
2019-03-12T13:11:57.375Z,27.60
2019-03-12T13:13:49.773Z,27.50
2019-03-12T13:15:42.327Z,27.40
2019-03-12T13:17:34.593Z,28.00
2019-03-12T13:19:27.184Z,27.60
2019-03-12T13:21:19.857Z,26.80
2019-03-12T13:23:11.873Z,27.40
2019-03-12T13:25:05.542Z,29.80
2019-03-12T13:26:57.475Z,28.70
2019-03-12T13:28:49.876Z,29.30
2019-03-12T13:30:42.152Z,29.00
2019-03-12T13:32:34.466Z,29.10
2019-03-12T13:34:27.293Z,29.30
2019-03-12T13:36:20.606Z,27.80
2019-03-12T13:38:12.478Z,27.50
2019-03-12T13:40:06.001Z,27.80
2019-03-12T13:41:58.298Z,28.30
2019-03-12T13:43:50.281Z,28.90
2019-03-12T13:45:42.652Z,30.80
2019-03-12T13:47:34.993Z,31.60
2019-03-12T13:49:27.988Z,29.80
2019-03-12T13:51:20.552Z,28.70
2019-03-12T13:53:13.052Z,28.70
2019-03-12T13:55:06.706Z,27.50
2019-03-12T13:56:59.275Z,28.00
2019-03-12T13:58:51.733Z,29.80
2019-03-12T14:00:43.645Z,29.40
2019-03-12T14:02:35.849Z,28.30
2019-03-12T14:04:27.833Z,29.50
2019-03-12T14:06:20.054Z,28.80
2019-03-12T14:08:12.302Z,27.50
2019-03-12T14:10:06.496Z,28.20
2019-03-12T14:11:59.282Z,28.90
2019-03-12T14:13:52.069Z,27.50
2019-03-12T14:15:44.225Z,28.70
2019-03-12T14:17:36.739Z,28.10
2019-03-12T14:19:29.286Z,28.60
2019-03-12T14:21:21.792Z,27.10
2019-03-12T14:23:18.445Z,27.80
2019-03-12T14:25:12.123Z,27.00
2019-03-12T14:27:04.533Z,26.90
2019-03-12T14:28:57.021Z,26.90
2019-03-12T14:30:49.232Z,27.40
2019-03-12T14:32:41.247Z,27.20
2019-03-12T14:34:33.326Z,26.60
2019-03-12T14:36:25.770Z,27.20
2019-03-12T14:38:18.042Z,26.40
2019-03-12T14:40:10.326Z,25.90
2019-03-12T14:42:02.144Z,26.10
2019-03-12T14:43:54.529Z,26.10
2019-03-12T14:45:47.944Z,26.00
2019-03-12T14:47:40.354Z,23.70
2019-03-12T14:49:32.468Z,23.40
2019-03-12T14:51:25.857Z,22.50
2019-03-12T14:53:21.962Z,22.70
2019-03-12T14:55:12.484Z,23.00
2019-03-12T14:57:04.540Z,22.30
2019-03-12T14:58:57.497Z,22.90
2019-03-12T15:00:50.227Z,23.30
2019-03-12T15:02:42.512Z,24.00
2019-03-12T15:04:34.678Z,23.90
2019-03-12T15:06:27.019Z,23.30
2019-03-12T15:08:18.979Z,23.80
2019-03-12T15:10:11.568Z,23.80
2019-03-12T15:12:03.657Z,23.70
2019-03-12T15:13:55.794Z,23.60
2019-03-12T15:15:47.691Z,24.40
2019-03-12T15:17:39.553Z,25.50
2019-03-12T15:19:32.785Z,25.70
2019-03-12T15:21:25.351Z,26.00
2019-03-12T15:23:18.099Z,24.90
2019-03-12T15:25:11.497Z,25.20
2019-03-12T15:27:03.564Z,25.90
2019-03-12T15:28:56.241Z,26.80
2019-03-12T15:30:48.505Z,26.20
2019-03-12T15:32:40.997Z,26.90
2019-03-12T15:34:33.437Z,27.20
2019-03-12T15:36:25.315Z,27.20
2019-03-12T15:38:17.636Z,27.60
2019-03-12T15:40:10.816Z,27.70
2019-03-12T15:42:03.041Z,28.10
2019-03-12T15:43:55.228Z,28.60
2019-03-12T15:45:47.205Z,29.40
2019-03-12T15:47:39.424Z,29.10
2019-03-12T15:49:31.916Z,29.30
2019-03-12T15:51:25.227Z,29.30
2019-03-12T15:53:19.824Z,29.00
2019-03-12T15:55:12.040Z,29.30
2019-03-12T15:57:04.052Z,29.40
2019-03-12T15:58:56.184Z,30.30
2019-03-12T16:00:48.128Z,31.40
2019-03-12T16:02:40.591Z,29.50
2019-03-12T16:04:33.153Z,29.60
2019-03-12T16:06:26.512Z,29.60
2019-03-12T16:08:19.837Z,30.20
2019-03-12T16:10:13.341Z,30.70
2019-03-12T16:12:05.417Z,30.70
2019-03-12T16:13:57.674Z,31.10
2019-03-12T16:15:50.044Z,31.60
2019-03-12T16:17:42.273Z,32.50
2019-03-12T16:19:34.320Z,31.90
2019-03-12T16:21:26.455Z,32.40
2019-03-12T16:23:18.896Z,32.00
2019-03-12T16:25:11.747Z,33.00
2019-03-12T16:27:03.995Z,32.90
2019-03-12T16:28:56.510Z,33.70
2019-03-12T16:30:48.859Z,34.30
2019-03-12T16:32:41.045Z,34.00
2019-03-12T16:34:33.128Z,34.40
2019-03-12T16:36:25.362Z,34.20
2019-03-12T16:38:17.902Z,33.60
2019-03-12T16:40:11.513Z,33.90
2019-03-12T16:42:03.903Z,34.50
2019-03-12T16:43:56.185Z,34.40
2019-03-12T16:45:48.746Z,33.80
2019-03-12T16:47:42.173Z,33.90
2019-03-12T16:49:34.638Z,34.40
2019-03-12T16:51:26.783Z,34.40
2019-03-12T16:53:19.178Z,34.60
2019-03-12T16:55:12.524Z,34.80
2019-03-12T16:57:04.864Z,35.00
2019-03-12T16:58:58.614Z,35.40
2019-03-12T17:00:51.533Z,35.70
2019-03-12T17:02:43.709Z,35.70
2019-03-12T17:04:36.127Z,35.90
2019-03-12T17:06:28.219Z,37.50
2019-03-12T17:08:20.477Z,37.30
2019-03-12T17:10:13.563Z,37.90
2019-03-12T17:12:05.829Z,39.60
2019-03-12T17:13:57.956Z,38.90
2019-03-12T17:15:54.433Z,39.90
2019-03-12T17:17:44.400Z,38.10
2019-03-12T17:19:36.797Z,38.00
2019-03-12T17:21:32.402Z,40.70
2019-03-12T17:23:23.252Z,38.60
2019-03-12T17:25:15.426Z,39.10
2019-03-12T17:27:07.689Z,40.00
2019-03-12T17:29:00.137Z,40.40
2019-03-12T17:30:52.080Z,41.20
2019-03-12T17:32:44.357Z,42.00
2019-03-12T17:34:36.738Z,42.00
2019-03-12T17:36:28.756Z,42.20
2019-03-12T17:38:21.401Z,42.50
2019-03-12T17:40:15.250Z,43.10
2019-03-12T17:42:07.521Z,43.50
2019-03-12T17:43:59.800Z,43.20
2019-03-12T17:45:52.065Z,43.20
2019-03-12T17:47:44.192Z,43.30
2019-03-12T17:49:36.748Z,43.60
2019-03-12T17:51:29.220Z,43.80
2019-03-12T17:53:21.407Z,43.90
2019-03-12T17:55:13.884Z,43.80
2019-03-12T17:57:06.210Z,44.20
2019-03-12T17:58:58.241Z,44.20
2019-03-12T18:00:50.541Z,44.50
2019-03-12T18:02:43.093Z,44.70
2019-03-12T18:04:35.304Z,45.20
2019-03-12T18:06:27.449Z,45.40
2019-03-12T18:08:20.068Z,44.50
2019-03-12T18:10:15.809Z,45.00
2019-03-12T18:12:08.217Z,45.00
2019-03-12T18:14:00.768Z,44.20
2019-03-12T18:15:53.432Z,44.80
2019-03-12T18:17:46.133Z,45.30
2019-03-12T18:19:38.334Z,45.10
2019-03-12T18:21:30.493Z,44.90
2019-03-12T18:23:22.565Z,44.70
2019-03-12T18:25:16.721Z,44.70
2019-03-12T18:27:09.076Z,45.40
2019-03-12T18:29:01.533Z,45.20
2019-03-12T18:30:53.674Z,45.80
2019-03-12T18:32:46.543Z,45.50
2019-03-12T18:34:38.841Z,44.90
2019-03-12T18:36:31.797Z,44.90
2019-03-12T18:38:23.968Z,44.70
2019-03-12T18:40:20.247Z,45.20
2019-03-12T18:42:12.935Z,44.70
2019-03-12T18:44:05.576Z,45.30
2019-03-12T18:45:57.471Z,44.60
2019-03-12T18:47:49.872Z,44.00
2019-03-12T18:49:42.594Z,44.60
2019-03-12T18:51:34.989Z,45.00
2019-03-12T18:53:28.154Z,44.90
2019-03-12T18:55:31.065Z,44.40
2019-03-12T18:57:23.531Z,45.00
2019-03-12T18:59:16.011Z,45.50
2019-03-12T19:01:08.674Z,45.30
2019-03-12T19:03:01.269Z,45.80
2019-03-12T19:04:54.362Z,46.10
2019-03-12T19:06:47.704Z,46.00
2019-03-12T19:08:47.551Z,45.90
2019-03-12T19:10:35.767Z,46.20
2019-03-12T19:12:28.663Z,46.10
2019-03-12T19:14:21.315Z,46.20
2019-03-12T19:16:13.810Z,46.60
2019-03-12T19:18:07.869Z,46.40
2019-03-12T19:20:00.734Z,46.30
2019-03-12T19:21:53.830Z,46.70
2019-03-12T19:23:46.883Z,46.60
2019-03-12T19:25:44.658Z,46.70
2019-03-12T19:27:38.821Z,47.10
2019-03-12T19:29:31.941Z,47.10
2019-03-12T19:31:44.536Z,47.10
2019-03-12T19:33:37.397Z,48.10
2019-03-12T19:35:31.462Z,48.60
2019-03-12T19:37:24.430Z,49.30
2019-03-12T19:39:18.258Z,48.50
2019-03-12T19:41:11.046Z,48.50
2019-03-12T19:43:04.043Z,48.40
2019-03-12T19:44:58.241Z,48.80
2019-03-12T19:46:34.216Z,48.60
2019-03-12T19:48:08.323Z,48.40
2019-03-12T19:49:42.384Z,48.60
2019-03-12T19:51:17.570Z,48.10
2019-03-12T19:52:51.857Z,48.10
2019-03-12T19:54:26.029Z,48.00
2019-03-12T19:56:04.235Z,48.00
2019-03-12T19:57:38.961Z,47.80
2019-03-12T19:59:13.213Z,47.80
2019-03-12T20:00:48.936Z,47.80
2019-03-12T20:02:24.068Z,48.20
2019-03-12T20:03:58.370Z,47.90
2019-03-12T20:05:34.273Z,47.90
2019-03-12T20:07:08.571Z,47.70
2019-03-12T20:08:42.961Z,48.20
2019-03-12T20:10:34.045Z,48.60
2019-03-12T20:12:25.243Z,48.50
2019-03-12T20:14:10.426Z,48.60
2019-03-12T20:16:03.015Z,48.00
2019-03-12T20:17:39.038Z,48.10
2019-03-12T20:19:17.953Z,48.10
2019-03-12T20:21:03.001Z,48.10
2019-03-12T20:22:44.946Z,48.30
2019-03-12T20:24:30.434Z,47.80
2019-03-12T20:26:23.221Z,47.80
2019-03-12T20:28:17.191Z,47.90
2019-03-12T20:29:53.144Z,47.50
2019-03-12T20:31:31.385Z,47.50
2019-03-12T20:33:10.593Z,48.00
2019-03-12T20:34:46.484Z,48.00
2019-03-12T20:36:28.543Z,47.90
2019-03-12T20:38:39.831Z,48.30
2019-03-12T20:40:51.069Z,47.70
2019-03-12T20:43:02.643Z,48.40
2019-03-12T20:44:57.167Z,48.00
2019-03-12T20:46:54.089Z,48.00
2019-03-12T20:48:51.459Z,47.80
2019-03-12T20:50:55.033Z,47.90
2019-03-12T20:53:04.803Z,47.60
2019-03-12T20:55:02.456Z,48.10
2019-03-12T20:57:12.584Z,47.80
2019-03-12T20:59:19.439Z,47.90
2019-03-12T21:01:23.409Z,48.30
2019-03-12T21:03:36.106Z,49.00
2019-03-12T21:05:46.346Z,48.20
2019-03-12T21:08:00.207Z,48.50
2019-03-12T21:10:03.664Z,48.10
2019-03-12T21:12:04.797Z,48.20
2019-03-12T21:14:02.932Z,48.40
2019-03-12T21:16:14.371Z,48.10
2019-03-12T21:22:05.587Z,99.90
2019-03-12T21:24:02.692Z,86.60
2019-03-12T21:26:33.389Z,75.60
2019-03-12T21:28:52.245Z,69.40
2019-03-12T21:30:46.986Z,64.90
2019-03-12T21:32:41.254Z,62.00
2019-03-12T21:34:36.321Z,60.00
2019-03-12T21:36:31.216Z,58.60
2019-03-12T21:38:25.982Z,57.50
2019-03-12T21:40:20.724Z,56.70
2019-03-12T21:42:17.106Z,55.70
2019-03-12T21:44:11.878Z,55.40
2019-03-12T21:46:07.536Z,54.60
2019-03-12T21:48:02.634Z,54.00
2019-03-12T21:49:58.442Z,53.60
2019-03-12T21:51:53.634Z,53.30
2019-03-12T21:53:48.661Z,52.90
2019-03-12T21:55:43.964Z,52.70
2019-03-12T21:57:38.161Z,52.30
2019-03-12T21:59:31.534Z,52.40
2019-03-12T22:01:23.941Z,52.10
2019-03-12T22:03:17.376Z,52.00
2019-03-12T22:05:10.895Z,52.20
2019-03-12T22:07:03.947Z,52.10
2019-03-12T22:08:57.443Z,52.30
2019-03-12T22:10:50.953Z,52.40
2019-03-12T22:12:43.849Z,52.30
2019-03-12T22:14:37.256Z,52.40
2019-03-12T22:16:30.893Z,52.30
2019-03-12T22:18:24.193Z,52.40
2019-03-12T22:20:17.546Z,52.50
2019-03-12T22:22:15.088Z,52.30
2019-03-12T22:24:12.335Z,52.80
2019-03-12T22:26:05.674Z,52.80
2019-03-12T22:27:58.796Z,52.30
2019-03-12T22:29:52.522Z,52.10
2019-03-12T22:31:45.567Z,52.10
2019-03-12T22:33:38.893Z,52.00
2019-03-12T22:35:31.632Z,51.90
2019-03-12T22:37:25.139Z,51.80
2019-03-12T22:39:18.009Z,51.90
2019-03-12T22:41:11.255Z,51.80
2019-03-12T22:43:04.033Z,51.70
2019-03-12T22:44:57.530Z,51.70
2019-03-12T22:46:50.505Z,51.90
2019-03-12T22:48:42.864Z,52.00
2019-03-12T22:50:35.487Z,52.30
2019-03-12T22:52:28.240Z,52.30
2019-03-12T22:54:21.713Z,52.60
2019-03-12T22:56:15.022Z,52.40
2019-03-12T22:58:08.716Z,52.70
2019-03-12T23:00:21.755Z,52.60
2019-03-12T23:02:33.076Z,52.60
2019-03-12T23:04:44.350Z,52.80
2019-03-12T23:06:55.789Z,52.80
2019-03-12T23:09:07.231Z,52.80
2019-03-12T23:11:02.380Z,52.50
2019-03-12T23:12:55.550Z,52.40
2019-03-12T23:14:49.629Z,52.40
2019-03-12T23:16:43.885Z,52.30
2019-03-12T23:18:37.127Z,52.20
2019-03-12T23:20:29.952Z,52.20
2019-03-12T23:22:23.024Z,52.10
2019-03-12T23:24:16.422Z,52.20
2019-03-12T23:26:09.708Z,52.30
2019-03-12T23:28:03.162Z,52.20
2019-03-12T23:29:56.201Z,52.60
2019-03-12T23:31:50.447Z,52.70
2019-03-12T23:33:42.823Z,52.70
2019-03-12T23:35:35.772Z,53.00
2019-03-12T23:37:27.996Z,52.80
2019-03-12T23:39:20.574Z,53.00
2019-03-12T23:41:12.886Z,53.00
2019-03-12T23:43:06.194Z,53.10
2019-03-12T23:44:59.525Z,53.10
2019-03-12T23:46:52.463Z,53.00
2019-03-12T23:48:45.293Z,53.00
2019-03-12T23:50:38.128Z,53.20
2019-03-12T23:52:30.482Z,53.30
2019-03-12T23:54:23.972Z,53.20
2019-03-12T23:56:17.119Z,53.10
2019-03-12T23:58:10.675Z,53.00
